createdAt,value
2023-10-06T00:00:27.701Z,626
2023-10-06T00:01:41.232Z,627
2023-10-06T00:02:53.830Z,622
2023-10-06T00:03:57.136Z,624
2023-10-06T00:05:09.694Z,623
2023-10-06T00:06:23.133Z,624
2023-10-06T00:07:35.713Z,622
2023-10-06T00:08:39.105Z,623
2023-10-06T00:09:53.016Z,622
2023-10-06T00:11:06.662Z,623
2023-10-06T00:12:09.354Z,621
2023-10-06T00:13:22.597Z,623
2023-10-06T00:14:35.032Z,623
2023-10-06T00:15:38.886Z,623
2023-10-06T00:16:51.636Z,622
2023-10-06T00:18:05.177Z,622
2023-10-06T00:19:07.904Z,620
2023-10-06T00:20:21.149Z,619
2023-10-06T00:21:33.565Z,619
2023-10-06T00:22:37.156Z,619
2023-10-06T00:23:49.678Z,617
2023-10-06T00:25:03.123Z,618
2023-10-06T00:26:05.672Z,618
2023-10-06T00:27:19.096Z,617
2023-10-06T00:28:31.545Z,620
2023-10-06T00:29:44.608Z,620
2023-10-06T00:30:47.124Z,621
2023-10-06T00:32:00.159Z,619
2023-10-06T00:33:12.717Z,621
2023-10-06T00:34:16.130Z,619
2023-10-06T00:35:28.617Z,621
2023-10-06T00:36:42.076Z,621
2023-10-06T00:37:44.630Z,621
2023-10-06T00:38:59.521Z,622
2023-10-06T00:40:12.033Z,621
2023-10-06T00:41:15.895Z,621
2023-10-06T00:42:28.730Z,619
2023-10-06T00:43:42.140Z,620
2023-10-06T00:44:44.742Z,620
2023-10-06T00:45:58.132Z,621
2023-10-06T00:47:10.592Z,623
2023-10-06T00:48:24.244Z,621
2023-10-06T00:49:27.908Z,620
2023-10-06T00:50:41.094Z,619
2023-10-06T00:51:43.597Z,620
2023-10-06T00:52:56.725Z,620
2023-10-06T00:54:09.274Z,621
2023-10-06T00:55:22.607Z,621
2023-10-06T00:56:25.463Z,625
2023-10-06T00:57:38.592Z,625
2023-10-06T00:58:51.097Z,623
2023-10-06T00:59:54.619Z,622
2023-10-06T01:01:07.083Z,621
2023-10-06T01:02:20.146Z,621
2023-10-06T01:03:32.751Z,620
2023-10-06T01:04:36.139Z,621
2023-10-06T01:05:48.658Z,622
2023-10-06T01:07:02.140Z,624
2023-10-06T01:08:04.693Z,624
2023-10-06T01:09:20.127Z,626
2023-10-06T01:10:22.607Z,622
2023-10-06T01:11:36.113Z,620
2023-10-06T01:12:48.569Z,622
2023-10-06T01:14:01.664Z,622
2023-10-06T01:15:04.325Z,622
2023-10-06T01:16:17.780Z,626
2023-10-06T01:17:30.364Z,627
2023-10-06T01:18:33.615Z,627
2023-10-06T01:19:46.081Z,626
2023-10-06T01:20:59.110Z,629
2023-10-06T01:22:11.514Z,631
2023-10-06T01:23:14.621Z,632
2023-10-06T01:24:27.070Z,632
2023-10-06T01:25:40.715Z,633
2023-10-06T01:26:43.296Z,634
2023-10-06T01:27:56.619Z,635
2023-10-06T01:29:09.191Z,635
2023-10-06T01:30:12.639Z,636
2023-10-06T01:31:25.123Z,634
2023-10-06T01:32:38.732Z,634
2023-10-06T01:33:41.302Z,635
2023-10-06T01:34:55.116Z,635
2023-10-06T01:36:07.556Z,636
2023-10-06T01:37:20.625Z,638
2023-10-06T01:38:23.137Z,639
2023-10-06T01:39:37.609Z,638
2023-10-06T01:40:50.081Z,640
2023-10-06T01:41:53.619Z,639
2023-10-06T01:43:06.043Z,643
2023-10-06T01:44:19.147Z,644
2023-10-06T01:45:21.698Z,643
2023-10-06T01:46:35.119Z,642
2023-10-06T01:47:47.676Z,644
2023-10-06T01:48:51.119Z,644
2023-10-06T01:50:03.615Z,645
2023-10-06T01:51:17.127Z,644
2023-10-06T01:52:29.610Z,646
2023-10-06T01:53:33.131Z,645
2023-10-06T01:54:45.574Z,647
2023-10-06T01:55:58.872Z,646
2023-10-06T01:57:01.433Z,649
2023-10-06T01:58:14.632Z,650
2023-10-06T01:59:27.114Z,649
2023-10-06T02:00:30.627Z,649
2023-10-06T02:01:43.238Z,648
2023-10-06T02:02:56.694Z,646
2023-10-06T02:04:09.287Z,647
2023-10-06T02:05:12.647Z,648
2023-10-06T02:06:25.200Z,649
2023-10-06T02:07:38.665Z,651
2023-10-06T02:08:41.406Z,650
2023-10-06T02:09:54.671Z,650
2023-10-06T02:11:07.190Z,649
2023-10-06T02:12:10.665Z,648
2023-10-06T02:13:23.395Z,649
2023-10-06T02:14:36.650Z,649
2023-10-06T02:15:39.175Z,655
2023-10-06T02:16:52.690Z,656
2023-10-06T02:18:05.445Z,656
2023-10-06T02:19:19.149Z,654
2023-10-06T02:20:21.955Z,656
2023-10-06T02:21:35.156Z,657
2023-10-06T02:22:47.618Z,658
2023-10-06T02:23:51.185Z,659
2023-10-06T02:25:03.661Z,658
2023-10-06T02:26:17.161Z,662
2023-10-06T02:27:19.753Z,662
2023-10-06T02:28:33.155Z,666
2023-10-06T02:29:45.614Z,668
2023-10-06T02:30:49.167Z,666
2023-10-06T02:32:01.701Z,664
2023-10-06T02:33:15.155Z,663
2023-10-06T02:34:27.642Z,663
2023-10-06T02:35:31.141Z,664
2023-10-06T02:36:43.676Z,665
2023-10-06T02:37:57.178Z,667
2023-10-06T02:38:59.877Z,669
2023-10-06T02:40:13.148Z,669
2023-10-06T02:41:25.607Z,671
2023-10-06T02:42:29.164Z,671
2023-10-06T02:43:41.640Z,673
2023-10-06T02:44:55.172Z,676
2023-10-06T02:45:57.726Z,674
2023-10-06T02:47:11.931Z,673
2023-10-06T02:48:24.771Z,675
2023-10-06T02:49:28.173Z,675
2023-10-06T02:50:40.663Z,674
2023-10-06T02:51:54.125Z,673
2023-10-06T02:53:06.621Z,676
2023-10-06T02:54:10.134Z,675
2023-10-06T02:55:22.585Z,674
2023-10-06T02:56:35.673Z,675
2023-10-06T02:57:38.262Z,680
2023-10-06T02:58:51.648Z,681
2023-10-06T03:00:04.231Z,681
2023-10-06T03:01:07.716Z,681
2023-10-06T03:02:20.375Z,682
2023-10-06T03:03:33.707Z,683
2023-10-06T03:04:36.357Z,686
2023-10-06T03:05:49.674Z,685
2023-10-06T03:07:02.137Z,687
2023-10-06T03:08:16.648Z,684
2023-10-06T03:09:19.206Z,682
2023-10-06T03:10:32.693Z,683
2023-10-06T03:11:46.667Z,686
2023-10-06T03:12:50.261Z,687
2023-10-06T03:14:02.805Z,687
2023-10-06T03:15:16.150Z,688
2023-10-06T03:16:18.733Z,688
2023-10-06T03:17:32.337Z,686
2023-10-06T03:18:45.041Z,685
2023-10-06T03:19:48.652Z,685
2023-10-06T03:21:01.258Z,685
2023-10-06T03:22:14.655Z,686
2023-10-06T03:23:17.220Z,687
2023-10-06T03:24:30.657Z,685
2023-10-06T03:25:43.168Z,684
2023-10-06T03:26:46.650Z,683
2023-10-06T03:27:59.202Z,681
2023-10-06T03:29:12.968Z,680
2023-10-06T03:30:15.739Z,678
2023-10-06T03:31:29.154Z,678
2023-10-06T03:32:41.713Z,677
2023-10-06T03:33:56.644Z,676
2023-10-06T03:34:59.278Z,675
2023-10-06T03:36:12.694Z,674
2023-10-06T03:37:15.290Z,673
2023-10-06T03:38:28.877Z,674
2023-10-06T03:39:41.614Z,669
2023-10-06T03:40:55.223Z,669
2023-10-06T03:42:07.731Z,669
2023-10-06T03:43:11.188Z,670
2023-10-06T03:44:23.661Z,669
2023-10-06T03:45:27.197Z,671
2023-10-06T03:46:40.117Z,671
2023-10-06T03:47:53.710Z,670
2023-10-06T03:48:56.351Z,672
2023-10-06T03:50:09.736Z,672
2023-10-06T03:51:22.332Z,671
2023-10-06T03:52:25.701Z,672
2023-10-06T03:53:38.163Z,671
2023-10-06T03:54:51.700Z,673
2023-10-06T03:56:04.172Z,670
2023-10-06T03:57:07.745Z,670
2023-10-06T03:58:21.603Z,670
2023-10-06T03:59:25.155Z,671
2023-10-06T04:01:16.927Z,671
2023-10-06T04:01:50.759Z,670
2023-10-06T04:03:03.361Z,672
2023-10-06T04:04:06.712Z,671
2023-10-06T04:05:19.314Z,672
2023-10-06T04:06:32.690Z,674
2023-10-06T04:07:35.234Z,674
2023-10-06T04:08:48.699Z,675
2023-10-06T04:10:01.212Z,677
2023-10-06T04:11:04.755Z,679
2023-10-06T04:12:17.387Z,678
2023-10-06T04:13:30.708Z,680
2023-10-06T04:14:43.142Z,683
2023-10-06T04:15:46.679Z,684
2023-10-06T04:16:59.424Z,687
2023-10-06T04:18:12.676Z,691
2023-10-06T04:19:15.253Z,695
2023-10-06T04:20:28.706Z,694
2023-10-06T04:21:41.177Z,695
2023-10-06T04:22:44.713Z,697
2023-10-06T04:23:57.202Z,699
2023-10-06T04:25:10.708Z,702
2023-10-06T04:26:13.319Z,705
2023-10-06T04:27:27.193Z,705
2023-10-06T04:28:39.723Z,709
2023-10-06T04:29:53.190Z,711
2023-10-06T04:30:56.997Z,715
2023-10-06T04:32:11.695Z,718
2023-10-06T04:33:14.468Z,720
2023-10-06T04:34:27.693Z,722
2023-10-06T04:35:40.166Z,725
2023-10-06T04:36:43.701Z,729
2023-10-06T04:37:56.201Z,733
2023-10-06T04:39:15.524Z,738
2023-10-06T04:40:18.061Z,740
2023-10-06T04:41:31.952Z,743
2023-10-06T04:42:34.986Z,744
2023-10-06T04:43:48.222Z,747
2023-10-06T04:45:00.802Z,751
2023-10-06T04:46:04.289Z,751
2023-10-06T04:47:16.828Z,751
2023-10-06T04:48:30.213Z,751
2023-10-06T04:49:32.744Z,753
2023-10-06T04:50:46.214Z,756
2023-10-06T04:51:58.702Z,755
2023-10-06T04:53:12.205Z,755
2023-10-06T04:54:14.859Z,756
2023-10-06T04:55:28.205Z,759
2023-10-06T04:56:40.684Z,760
2023-10-06T04:57:44.219Z,763
2023-10-06T04:58:56.869Z,764
2023-10-06T05:00:12.168Z,767
2023-10-06T05:01:14.802Z,767
2023-10-06T05:02:28.288Z,768
2023-10-06T05:03:40.961Z,768
2023-10-06T05:04:44.217Z,771
2023-10-06T05:05:56.814Z,771
2023-10-06T05:07:10.179Z,769
2023-10-06T05:08:12.821Z,770
2023-10-06T05:09:26.218Z,771
2023-10-06T05:10:38.684Z,770
2023-10-06T05:11:52.203Z,770
2023-10-06T05:12:54.776Z,770
2023-10-06T05:14:08.293Z,768
2023-10-06T05:15:20.911Z,767
2023-10-06T05:16:24.922Z,765
2023-10-06T05:17:37.724Z,764
2023-10-06T05:18:51.232Z,763
2023-10-06T05:19:53.931Z,764
2023-10-06T05:21:07.221Z,760
2023-10-06T05:22:19.675Z,758
2023-10-06T05:23:35.417Z,759
2023-10-06T05:24:38.495Z,761
2023-10-06T05:25:51.719Z,757
2023-10-06T05:26:54.395Z,756
2023-10-06T05:28:07.692Z,756
2023-10-06T05:29:20.300Z,752
2023-10-06T05:30:23.722Z,749
2023-10-06T05:31:36.234Z,746
2023-10-06T05:32:49.764Z,742
2023-10-06T05:34:02.415Z,740
2023-10-06T05:35:05.793Z,743
2023-10-06T05:36:21.175Z,743
2023-10-06T05:37:25.202Z,745
2023-10-06T05:38:37.659Z,745
2023-10-06T05:39:51.204Z,747
2023-10-06T05:40:53.786Z,746
2023-10-06T05:42:26.735Z,748
2023-10-06T05:43:19.398Z,746
2023-10-06T05:44:21.999Z,749
2023-10-06T05:45:39.589Z,751
2023-10-06T05:46:43.771Z,755
2023-10-06T05:47:57.206Z,760
2023-10-06T05:49:11.064Z,768
2023-10-06T05:50:14.269Z,782
2023-10-06T05:51:26.867Z,807
2023-10-06T05:52:34.200Z,852
2023-10-06T05:53:46.665Z,861
2023-10-06T05:55:00.240Z,873
2023-10-06T05:56:02.834Z,881
2023-10-06T05:57:16.203Z,888
2023-10-06T05:58:28.684Z,889
2023-10-06T05:59:34.426Z,899
2023-10-06T06:00:47.937Z,909
2023-10-06T06:01:51.259Z,910
2023-10-06T06:03:03.866Z,921
2023-10-06T06:04:17.223Z,926
2023-10-06T06:05:29.856Z,929
2023-10-06T06:06:33.203Z,929
2023-10-06T06:07:45.717Z,929
2023-10-06T06:08:59.247Z,933
2023-10-06T06:10:01.798Z,934
2023-10-06T06:11:15.272Z,932
2023-10-06T06:12:27.962Z,924
2023-10-06T06:13:31.193Z,923
2023-10-06T06:14:43.722Z,929
2023-10-06T06:15:57.267Z,933
2023-10-06T06:17:09.953Z,939
2023-10-06T06:18:13.242Z,943
2023-10-06T06:19:25.744Z,944
2023-10-06T06:20:39.270Z,946
2023-10-06T06:21:41.968Z,951
2023-10-06T06:22:55.258Z,955
2023-10-06T06:24:07.857Z,956
2023-10-06T06:25:21.218Z,959
2023-10-06T06:26:23.789Z,962
2023-10-06T06:27:37.222Z,968
2023-10-06T06:28:49.846Z,970
2023-10-06T06:29:53.227Z,973
2023-10-06T06:31:06.504Z,974
2023-10-06T06:32:20.325Z,975
2023-10-06T06:33:24.589Z,977
2023-10-06T06:34:37.744Z,978
2023-10-06T06:35:50.574Z,981
2023-10-06T06:36:53.862Z,977
2023-10-06T06:38:06.434Z,980
2023-10-06T06:39:19.787Z,983
2023-10-06T06:40:23.142Z,982
2023-10-06T06:41:36.707Z,977
2023-10-06T06:42:49.205Z,973
2023-10-06T06:43:52.760Z,972
2023-10-06T06:45:05.346Z,969
2023-10-06T06:46:18.788Z,966
2023-10-06T06:47:22.723Z,962
2023-10-06T06:48:36.217Z,959
2023-10-06T06:49:48.710Z,952
2023-10-06T06:51:02.246Z,945
2023-10-06T06:52:04.846Z,948
2023-10-06T06:53:18.263Z,944
2023-10-06T06:54:30.782Z,943
2023-10-06T06:55:34.221Z,939
2023-10-06T06:56:46.753Z,935
2023-10-06T06:58:00.220Z,933
2023-10-06T06:59:03.053Z,938
2023-10-06T07:00:16.814Z,938
2023-10-06T07:01:29.532Z,939
2023-10-06T07:02:36.793Z,939
2023-10-06T07:03:49.402Z,936
2023-10-06T07:04:52.755Z,932
2023-10-06T07:06:05.375Z,931
2023-10-06T07:07:18.743Z,930
2023-10-06T07:08:31.258Z,929
2023-10-06T07:09:34.765Z,931
2023-10-06T07:10:47.707Z,929
2023-10-06T07:12:01.755Z,923
2023-10-06T07:13:04.334Z,918
2023-10-06T07:14:17.767Z,916
2023-10-06T07:15:30.464Z,916
2023-10-06T07:16:34.256Z,908
2023-10-06T07:17:46.867Z,907
2023-10-06T07:19:00.260Z,904
2023-10-06T07:20:02.877Z,897
2023-10-06T07:21:16.272Z,893
2023-10-06T07:22:28.768Z,888
2023-10-06T07:23:32.248Z,887
2023-10-06T07:24:44.990Z,882
2023-10-06T07:25:58.845Z,880
2023-10-06T07:27:21.049Z,885
2023-10-06T07:28:14.762Z,887
2023-10-06T07:29:27.261Z,889
2023-10-06T07:30:40.791Z,886
2023-10-06T07:31:43.565Z,879
2023-10-06T07:32:56.818Z,861
2023-10-06T07:34:11.123Z,826
2023-10-06T07:35:14.789Z,788
2023-10-06T07:36:27.237Z,782
2023-10-06T07:37:40.230Z,763
2023-10-06T07:38:42.754Z,768
2023-10-06T07:39:56.280Z,770
2023-10-06T07:41:08.674Z,778
2023-10-06T07:42:12.287Z,767
2023-10-06T07:43:24.682Z,751
2023-10-06T07:44:37.886Z,739
2023-10-06T07:45:40.420Z,728
2023-10-06T07:47:03.297Z,716
2023-10-06T07:48:05.877Z,717
2023-10-06T07:49:19.248Z,724
2023-10-06T07:51:48.108Z,738
2023-10-06T07:52:40.634Z,741
2023-10-06T07:54:03.534Z,745
2023-10-06T07:55:25.482Z,738
2023-10-06T07:56:19.060Z,736
2023-10-06T07:57:21.410Z,727
2023-10-06T07:58:34.534Z,717
2023-10-06T07:59:46.741Z,705
2023-10-06T08:00:50.189Z,679
2023-10-06T08:02:02.513Z,653
2023-10-06T08:03:16.109Z,634
2023-10-06T08:04:18.673Z,611
2023-10-06T08:05:32.112Z,600
2023-10-06T08:06:44.516Z,608
2023-10-06T08:07:57.594Z,611
2023-10-06T08:09:00.606Z,603
2023-10-06T08:10:13.518Z,606
2023-10-06T08:11:25.750Z,605
2023-10-06T08:12:29.038Z,606
2023-10-06T08:13:41.245Z,606
2023-10-06T08:14:54.023Z,609
2023-10-06T08:16:06.237Z,607
2023-10-06T08:17:09.586Z,605
2023-10-06T08:18:21.877Z,597
2023-10-06T08:19:35.082Z,591
2023-10-06T08:20:37.593Z,587
2023-10-06T08:21:50.557Z,582
2023-10-06T08:23:02.780Z,579
2023-10-06T08:24:16.037Z,574
2023-10-06T08:25:18.393Z,570
2023-10-06T08:26:31.614Z,566
2023-10-06T08:27:43.666Z,560
2023-10-06T08:28:56.676Z,559
2023-10-06T08:29:59.021Z,560
2023-10-06T08:31:12.596Z,562
2023-10-06T08:32:24.869Z,566
2023-10-06T08:33:28.141Z,568
2023-10-06T08:34:40.541Z,569
2023-10-06T08:35:53.546Z,568
2023-10-06T08:36:55.887Z,566
2023-10-06T08:38:09.105Z,564
2023-10-06T08:39:21.533Z,561
2023-10-06T08:40:34.613Z,560
2023-10-06T08:41:37.289Z,557
2023-10-06T08:42:50.561Z,556
2023-10-06T08:44:02.912Z,556
2023-10-06T08:45:06.528Z,552
2023-10-06T08:46:18.806Z,548
2023-10-06T08:47:38.851Z,543
2023-10-06T08:48:37.989Z,536
2023-10-06T08:49:51.086Z,519
2023-10-06T08:51:03.479Z,519
2023-10-06T08:52:07.111Z,514
2023-10-06T08:53:19.388Z,516
2023-10-06T08:54:32.576Z,518
2023-10-06T08:55:35.028Z,519
2023-10-06T08:56:48.556Z,517
2023-10-06T08:58:03.927Z,516
2023-10-06T08:59:08.139Z,515
2023-10-06T09:00:20.482Z,515
2023-10-06T09:01:23.586Z,515
2023-10-06T09:02:35.867Z,514
2023-10-06T09:03:49.100Z,516
2023-10-06T09:05:01.385Z,518
2023-10-06T09:06:04.586Z,522
2023-10-06T09:07:16.843Z,517
2023-10-06T09:08:30.111Z,516
2023-10-06T09:09:32.545Z,517
2023-10-06T09:10:45.550Z,514
2023-10-06T09:11:57.738Z,514
2023-10-06T09:13:11.067Z,515
2023-10-06T09:14:13.794Z,513
2023-10-06T09:15:27.553Z,514
2023-10-06T09:16:39.873Z,517
2023-10-06T09:17:43.204Z,520
2023-10-06T09:18:55.576Z,523
2023-10-06T09:20:20.194Z,526
2023-10-06T09:21:17.205Z,528
2023-10-06T09:22:20.090Z,529
2023-10-06T09:23:33.115Z,532
2023-10-06T09:24:55.011Z,533
2023-10-06T09:25:58.653Z,536
2023-10-06T09:27:01.123Z,537
2023-10-06T09:28:14.069Z,540
2023-10-06T09:29:26.313Z,543
2023-10-06T09:30:29.560Z,545
2023-10-06T09:31:42.270Z,546
2023-10-06T09:32:55.587Z,545
2023-10-06T09:33:58.140Z,548
2023-10-06T09:35:11.091Z,551
2023-10-06T09:36:36.261Z,550
2023-10-06T09:37:36.580Z,551
2023-10-06T09:38:38.882Z,551
2023-10-06T09:39:52.066Z,554
2023-10-06T09:41:04.326Z,555
2023-10-06T09:42:07.558Z,557
2023-10-06T09:43:22.395Z,557
2023-10-06T09:44:26.123Z,557
2023-10-06T09:45:38.317Z,558
2023-10-06T09:46:51.610Z,559
2023-10-06T09:47:54.250Z,558
2023-10-06T09:49:07.575Z,555
2023-10-06T09:50:19.831Z,554
2023-10-06T09:51:33.087Z,556
2023-10-06T09:52:35.338Z,555
2023-10-06T09:53:48.611Z,554
2023-10-06T09:55:00.833Z,548
2023-10-06T09:56:04.235Z,542
2023-10-06T09:57:16.484Z,530
2023-10-06T09:58:29.594Z,519
2023-10-06T09:59:31.898Z,511
2023-10-06T10:00:45.124Z,509
2023-10-06T10:01:57.522Z,510
2023-10-06T10:03:01.267Z,506
2023-10-06T10:04:13.882Z,501
2023-10-06T10:05:27.153Z,500
2023-10-06T10:06:29.527Z,496
2023-10-06T10:07:44.574Z,497
2023-10-06T10:08:56.980Z,495
2023-10-06T10:10:00.589Z,495
2023-10-06T10:11:12.878Z,495
2023-10-06T10:12:26.094Z,494
2023-10-06T10:13:28.455Z,496
2023-10-06T10:14:41.596Z,493
2023-10-06T10:15:53.889Z,491
2023-10-06T10:17:07.177Z,488
2023-10-06T10:18:09.562Z,488
2023-10-06T10:19:22.577Z,488
2023-10-06T10:20:34.854Z,485
2023-10-06T10:21:38.371Z,482
2023-10-06T10:22:50.550Z,482
2023-10-06T10:24:40.588Z,479
2023-10-06T10:25:23.466Z,477
2023-10-06T10:26:16.981Z,477
2023-10-06T10:27:30.068Z,473
2023-10-06T10:28:42.212Z,473
2023-10-06T10:29:45.645Z,470
2023-10-06T10:30:58.375Z,468
2023-10-06T10:32:12.152Z,468
2023-10-06T10:33:14.680Z,466
2023-10-06T10:34:27.868Z,465
2023-10-06T10:35:40.430Z,466
2023-10-06T10:36:43.617Z,466
2023-10-06T10:37:55.872Z,464
2023-10-06T10:39:09.077Z,464
2023-10-06T10:40:22.386Z,463
2023-10-06T10:41:25.686Z,464
2023-10-06T10:42:38.002Z,464
2023-10-06T10:43:51.121Z,462
2023-10-06T10:44:53.465Z,464
2023-10-06T10:46:06.641Z,464
2023-10-06T10:47:18.939Z,463
2023-10-06T10:48:22.123Z,461
2023-10-06T10:49:34.488Z,463
2023-10-06T10:50:47.625Z,463
2023-10-06T10:51:59.757Z,466
2023-10-06T10:53:03.233Z,469
2023-10-06T10:54:15.378Z,472
2023-10-06T10:55:28.153Z,475
2023-10-06T10:56:30.618Z,478
2023-10-06T10:57:43.624Z,475
2023-10-06T10:58:55.953Z,476
2023-10-06T11:00:09.096Z,475
2023-10-06T11:01:11.421Z,477
2023-10-06T11:02:24.621Z,477
2023-10-06T11:03:36.983Z,478
2023-10-06T11:04:41.437Z,479
2023-10-06T11:05:53.670Z,480
2023-10-06T11:07:06.595Z,482
2023-10-06T11:08:08.866Z,482
2023-10-06T11:09:22.095Z,484
2023-10-06T11:10:34.254Z,483
2023-10-06T11:11:37.132Z,483
2023-10-06T11:12:49.210Z,483
2023-10-06T11:14:06.904Z,483
2023-10-06T11:15:10.141Z,486
2023-10-06T11:16:23.770Z,486
2023-10-06T11:17:26.282Z,487
2023-10-06T11:18:39.685Z,487
2023-10-06T11:19:52.138Z,485
2023-10-06T11:20:55.627Z,482
2023-10-06T11:22:07.822Z,483
2023-10-06T11:23:21.169Z,482
2023-10-06T11:24:23.554Z,482
2023-10-06T11:25:36.639Z,479
2023-10-06T11:26:58.646Z,478
2023-10-06T11:28:01.648Z,478
2023-10-06T11:29:04.063Z,475
2023-10-06T11:30:17.187Z,475
2023-10-06T11:31:49.544Z,474
2023-10-06T11:32:33.332Z,473
2023-10-06T11:34:34.624Z,471
2023-10-06T11:34:58.426Z,470
2023-10-06T11:36:00.977Z,466
2023-10-06T11:37:13.653Z,465
2023-10-06T11:38:25.787Z,467
2023-10-06T11:39:48.609Z,466
2023-10-06T11:40:41.033Z,464
2023-10-06T11:41:54.167Z,462
2023-10-06T11:43:06.312Z,458
2023-10-06T11:44:09.765Z,453
2023-10-06T11:45:22.087Z,448
2023-10-06T11:46:35.150Z,445
2023-10-06T11:47:37.448Z,443
2023-10-06T11:48:51.341Z,438
2023-10-06T11:50:03.605Z,434
2023-10-06T11:51:06.613Z,436
2023-10-06T11:52:18.787Z,436
2023-10-06T11:53:31.704Z,437
2023-10-06T11:54:53.853Z,437
2023-10-06T11:55:47.169Z,437
2023-10-06T11:56:59.343Z,438
2023-10-06T11:58:12.122Z,439
2023-10-06T11:59:14.394Z,441
2023-10-06T12:00:27.612Z,442
2023-10-06T12:01:39.828Z,442
2023-10-06T12:02:53.226Z,444
2023-10-06T12:03:55.722Z,443
2023-10-06T12:05:08.664Z,447
2023-10-06T12:06:20.857Z,449
2023-10-06T12:07:24.415Z,449
2023-10-06T12:08:36.537Z,448
2023-10-06T12:09:49.669Z,452
2023-10-06T12:10:52.069Z,452
2023-10-06T12:12:05.123Z,455
2023-10-06T12:13:17.258Z,455
2023-10-06T12:14:30.159Z,458
2023-10-06T12:15:32.409Z,456
2023-10-06T12:16:45.174Z,456
2023-10-06T12:17:57.426Z,453
2023-10-06T12:19:10.643Z,453
2023-10-06T12:20:12.968Z,453
2023-10-06T12:21:26.162Z,452
2023-10-06T12:22:41.428Z,451
2023-10-06T12:23:44.639Z,452
2023-10-06T12:24:56.830Z,454
2023-10-06T12:26:01.068Z,455
2023-10-06T12:27:13.384Z,459
2023-10-06T12:28:26.169Z,460
2023-10-06T12:29:28.353Z,462
2023-10-06T12:30:41.163Z,462
2023-10-06T12:31:53.317Z,466
2023-10-06T12:33:06.215Z,467
2023-10-06T12:34:08.739Z,470
2023-10-06T12:35:22.256Z,472
2023-10-06T12:36:43.991Z,470
2023-10-06T12:37:47.130Z,469
2023-10-06T12:38:49.359Z,469
2023-10-06T12:40:02.123Z,469
2023-10-06T12:41:14.222Z,468
2023-10-06T12:42:17.663Z,465
2023-10-06T12:43:29.665Z,464
2023-10-06T12:44:42.671Z,462
2023-10-06T12:45:45.049Z,462
2023-10-06T12:46:58.309Z,461
2023-10-06T12:48:10.474Z,461
2023-10-06T12:49:23.707Z,459
2023-10-06T12:50:25.988Z,459
2023-10-06T12:51:38.644Z,462
2023-10-06T12:52:50.924Z,461
2023-10-06T12:53:55.117Z,459
2023-10-06T12:55:07.176Z,458
2023-10-06T12:56:20.154Z,455
2023-10-06T12:57:23.414Z,456
2023-10-06T12:58:36.138Z,456
2023-10-06T12:59:48.161Z,454
2023-10-06T13:01:01.196Z,453
2023-10-06T13:02:03.485Z,452
2023-10-06T13:04:28.552Z,449
2023-10-06T13:05:31.731Z,450
2023-10-06T13:06:43.927Z,448
2023-10-06T13:07:57.053Z,448
2023-10-06T13:09:09.145Z,448
2023-10-06T13:10:12.179Z,447
2023-10-06T13:11:24.285Z,444
2023-10-06T13:12:37.176Z,447
2023-10-06T13:13:39.370Z,447
2023-10-06T13:14:52.162Z,448
2023-10-06T13:16:04.273Z,449
2023-10-06T13:17:17.248Z,447
2023-10-06T13:18:19.720Z,447
2023-10-06T13:19:32.662Z,447
2023-10-06T13:20:44.726Z,447
2023-10-06T13:21:47.661Z,448
2023-10-06T13:22:59.731Z,449
2023-10-06T13:24:12.804Z,447
2023-10-06T13:25:25.078Z,444
2023-10-06T13:26:40.572Z,444
2023-10-06T13:27:35.957Z,444
2023-10-06T13:28:48.665Z,441
2023-10-06T13:30:01.868Z,439
2023-10-06T13:31:06.675Z,440
2023-10-06T13:32:18.838Z,439
2023-10-06T13:33:31.755Z,438
2023-10-06T13:34:34.258Z,439
2023-10-06T13:36:09.373Z,438
2023-10-06T13:37:01.987Z,438
2023-10-06T13:38:04.457Z,437
2023-10-06T13:39:17.446Z,436
2023-10-06T13:40:29.638Z,433
2023-10-06T13:41:32.684Z,432
2023-10-06T13:42:44.850Z,431
2023-10-06T13:43:57.701Z,431
2023-10-06T13:45:09.894Z,429
2023-10-06T13:46:12.697Z,426
2023-10-06T13:47:24.802Z,424
2023-10-06T13:48:37.721Z,422
2023-10-06T13:49:40.039Z,419
2023-10-06T13:50:53.210Z,419
2023-10-06T13:52:05.265Z,417
2023-10-06T13:53:18.250Z,416
2023-10-06T13:54:20.522Z,417
2023-10-06T13:55:33.708Z,418
2023-10-06T13:57:05.234Z,418
2023-10-06T13:57:48.690Z,418
2023-10-06T13:59:00.943Z,417
2023-10-06T14:00:13.689Z,418
2023-10-06T14:01:25.999Z,420
2023-10-06T14:02:29.226Z,418
2023-10-06T14:03:41.479Z,418
2023-10-06T14:04:54.661Z,417
2023-10-06T14:05:57.076Z,416
2023-10-06T14:07:10.187Z,417
2023-10-06T14:08:22.380Z,416
2023-10-06T14:09:25.679Z,417
2023-10-06T14:10:37.776Z,415
2023-10-06T14:12:01.439Z,417
2023-10-06T14:12:53.880Z,416
2023-10-06T14:14:06.689Z,416
2023-10-06T14:15:18.967Z,415
2023-10-06T14:16:31.684Z,416
2023-10-06T14:17:34.913Z,418
2023-10-06T14:18:48.189Z,421
2023-10-06T14:20:00.287Z,419
2023-10-06T14:21:03.171Z,418
2023-10-06T14:22:15.385Z,418
2023-10-06T14:23:28.753Z,419
2023-10-06T14:24:31.047Z,420
2023-10-06T14:25:43.699Z,419
2023-10-06T14:26:55.873Z,418
2023-10-06T14:28:08.680Z,418
2023-10-06T14:29:10.901Z,419
2023-10-06T14:30:23.662Z,418
2023-10-06T14:31:35.773Z,417
2023-10-06T14:32:38.708Z,418
2023-10-06T14:33:50.790Z,418
2023-10-06T14:35:03.745Z,420
2023-10-06T14:36:25.888Z,417
2023-10-06T14:37:22.235Z,418
2023-10-06T14:38:34.440Z,420
2023-10-06T14:39:37.678Z,420
2023-10-06T14:40:49.680Z,422
2023-10-06T14:42:02.682Z,421
2023-10-06T14:43:04.828Z,420
2023-10-06T14:44:17.707Z,420
2023-10-06T14:45:29.862Z,420
2023-10-06T14:46:42.779Z,419
2023-10-06T14:47:45.185Z,420
2023-10-06T14:48:58.221Z,421
2023-10-06T14:50:10.460Z,422
2023-10-06T14:51:14.704Z,421
2023-10-06T14:52:36.377Z,421
2023-10-06T14:53:39.331Z,422
2023-10-06T14:54:41.557Z,421
2023-10-06T14:55:54.701Z,421
2023-10-06T14:57:06.731Z,425
2023-10-06T14:58:19.678Z,427
2023-10-06T14:59:21.966Z,428
2023-10-06T15:00:34.679Z,429
2023-10-06T15:01:46.734Z,430
2023-10-06T15:02:49.807Z,431
2023-10-06T15:04:06.625Z,433
2023-10-06T15:05:09.735Z,433
2023-10-06T15:06:21.911Z,434
2023-10-06T15:07:34.701Z,434
2023-10-06T15:08:36.869Z,435
2023-10-06T15:09:49.685Z,435
2023-10-06T15:11:01.659Z,437
2023-10-06T15:12:14.708Z,439
2023-10-06T15:13:16.898Z,442
2023-10-06T15:14:29.744Z,444
2023-10-06T15:15:41.868Z,450
2023-10-06T15:16:44.675Z,455
2023-10-06T15:18:09.004Z,454
2023-10-06T15:19:09.224Z,457
2023-10-06T15:20:21.240Z,463
2023-10-06T15:21:24.275Z,469
2023-10-06T15:22:36.329Z,474
2023-10-06T15:23:52.047Z,475
2023-10-06T15:24:56.472Z,480
2023-10-06T15:26:09.268Z,480
2023-10-06T15:27:11.434Z,481
2023-10-06T15:28:38.057Z,480
2023-10-06T15:29:31.512Z,482
2023-10-06T15:30:44.693Z,482
2023-10-06T15:31:56.686Z,482
2023-10-06T15:33:09.770Z,480
2023-10-06T15:34:12.000Z,479
2023-10-06T15:35:24.718Z,474
2023-10-06T15:36:36.728Z,474
2023-10-06T15:37:39.852Z,470
2023-10-06T15:38:51.856Z,469
2023-10-06T15:40:04.715Z,468
2023-10-06T15:41:16.932Z,468
2023-10-06T15:42:20.215Z,467
2023-10-06T15:43:32.316Z,468
2023-10-06T15:44:45.196Z,468
2023-10-06T15:45:47.478Z,469
2023-10-06T15:47:00.247Z,470
2023-10-06T15:48:12.457Z,472
2023-10-06T15:49:25.367Z,471
2023-10-06T15:50:27.688Z,474
2023-10-06T15:51:40.739Z,476
2023-10-06T15:52:52.872Z,476
2023-10-06T15:53:55.729Z,477
2023-10-06T15:55:07.835Z,479
2023-10-06T15:56:20.743Z,478
2023-10-06T15:57:32.970Z,477
2023-10-06T15:58:36.199Z,477
2023-10-06T15:59:48.323Z,477
2023-10-06T16:01:01.243Z,478
2023-10-06T16:02:03.664Z,477
2023-10-06T16:03:16.735Z,476
2023-10-06T16:04:29.058Z,477